createdAt,value
2022-07-26T00:02:00.265Z,13.68
2022-07-26T00:04:29.782Z,13.57
2022-07-26T00:06:57.944Z,13.50
2022-07-26T00:09:26.122Z,13.38
2022-07-26T00:11:54.351Z,13.40
2022-07-26T00:14:22.523Z,13.15
2022-07-26T00:16:50.776Z,13.98
2022-07-26T00:19:18.913Z,13.68
2022-07-26T00:21:48.466Z,14.00
2022-07-26T00:24:16.562Z,13.23
2022-07-26T00:26:44.747Z,13.95
2022-07-26T00:29:12.846Z,13.15
2022-07-26T00:31:41.170Z,13.35
2022-07-26T00:34:09.314Z,13.65
2022-07-26T00:36:37.421Z,13.60
2022-07-26T00:39:11.692Z,13.48
2022-07-26T00:41:40.007Z,13.38
2022-07-26T00:44:08.529Z,12.80
2022-07-26T00:46:36.778Z,12.85
2022-07-26T00:49:05.408Z,12.45
2022-07-26T00:51:33.694Z,12.43
2022-07-26T00:54:01.811Z,12.38
2022-07-26T00:56:34.804Z,12.27
2022-07-26T00:59:03.214Z,11.77
2022-07-26T01:01:31.487Z,11.65
2022-07-26T01:03:59.796Z,12.02
2022-07-26T01:06:27.877Z,11.75
2022-07-26T01:08:56.091Z,11.45
2022-07-26T01:11:24.233Z,12.23
2022-07-26T01:13:53.755Z,11.73
2022-07-26T01:16:21.973Z,11.30
2022-07-26T01:18:50.287Z,11.63
2022-07-26T01:21:18.380Z,11.48
2022-07-26T01:23:47.890Z,11.02
2022-07-26T01:26:16.010Z,10.52
2022-07-26T01:28:44.939Z,10.20
2022-07-26T01:31:13.176Z,10.30
2022-07-26T01:33:41.813Z,10.82
2022-07-26T01:36:10.263Z,10.30
2022-07-26T01:38:38.354Z,10.05
2022-07-26T01:41:08.068Z,10.23
2022-07-26T01:43:36.211Z,10.50
2022-07-26T01:46:04.494Z,10.13
2022-07-26T01:48:32.620Z,9.98
2022-07-26T01:51:00.765Z,9.50
2022-07-26T01:53:28.964Z,9.07
2022-07-26T01:55:57.075Z,9.65
2022-07-26T01:58:27.154Z,9.25
2022-07-26T02:00:55.242Z,9.38
2022-07-26T02:03:23.475Z,9.25
2022-07-26T02:05:51.671Z,8.93
2022-07-26T02:08:20.724Z,9.57
2022-07-26T02:11:03.559Z,9.30
2022-07-26T02:13:34.244Z,8.65
2022-07-26T02:16:02.674Z,9.05
2022-07-26T02:18:31.220Z,8.38
2022-07-26T02:20:59.499Z,8.98
2022-07-26T02:23:27.684Z,8.57
2022-07-26T02:25:55.927Z,8.80
2022-07-26T02:28:24.179Z,8.80
2022-07-26T02:30:53.674Z,8.27
2022-07-26T02:33:22.319Z,8.73
2022-07-26T02:35:50.465Z,8.48
2022-07-26T02:38:18.782Z,7.93
2022-07-26T02:40:50.514Z,8.32
2022-07-26T02:43:18.711Z,7.88
2022-07-26T02:46:03.711Z,7.97
2022-07-26T02:48:33.393Z,7.85
2022-07-26T02:51:01.548Z,7.80
2022-07-26T02:53:29.625Z,7.88
2022-07-26T02:55:57.742Z,7.55
2022-07-26T02:58:27.031Z,7.80
2022-07-26T03:00:55.133Z,7.20
2022-07-26T03:03:23.299Z,7.68
2022-07-26T03:05:52.784Z,7.38
2022-07-26T03:08:20.995Z,7.68
2022-07-26T03:10:49.218Z,7.50
2022-07-26T03:13:17.303Z,7.32
2022-07-26T03:15:45.498Z,7.25
2022-07-26T03:18:13.662Z,7.30
2022-07-26T03:20:41.819Z,7.25
2022-07-26T03:23:11.307Z,7.30
2022-07-26T03:25:39.807Z,7.25
2022-07-26T03:28:07.973Z,7.07
2022-07-26T03:30:36.169Z,6.75
2022-07-26T03:33:04.257Z,6.90
2022-07-26T03:35:36.438Z,6.82
2022-07-26T03:38:05.196Z,6.82
2022-07-26T03:40:35.170Z,6.57
2022-07-26T03:43:03.291Z,6.30
2022-07-26T03:45:31.368Z,6.72
2022-07-26T03:47:59.470Z,7.07
2022-07-26T03:50:27.651Z,6.45
2022-07-26T03:52:55.786Z,6.50
2022-07-26T03:55:41.456Z,6.85
2022-07-26T03:58:11.044Z,5.97
2022-07-26T04:00:39.264Z,6.20
2022-07-26T04:03:07.342Z,6.43
2022-07-26T04:05:36.099Z,6.30
2022-07-26T04:08:04.477Z,5.68
2022-07-26T04:10:32.787Z,6.07
2022-07-26T04:13:00.965Z,5.40
2022-07-26T04:15:30.660Z,4.57
2022-07-26T04:17:58.764Z,4.10
2022-07-26T04:20:26.835Z,4.82
2022-07-26T04:22:54.967Z,4.72
2022-07-26T04:25:23.170Z,5.03
2022-07-26T04:27:51.303Z,4.95
2022-07-26T04:30:19.420Z,5.43
2022-07-26T04:32:48.975Z,4.32
2022-07-26T04:35:17.311Z,4.30
2022-07-26T04:37:46.123Z,4.20
2022-07-26T04:40:17.675Z,4.03
2022-07-26T04:42:50.153Z,3.90
2022-07-26T04:45:18.355Z,4.70
2022-07-26T04:47:49.736Z,4.10
2022-07-26T04:50:18.279Z,4.05
2022-07-26T04:52:46.402Z,4.30
2022-07-26T04:55:14.648Z,3.80
2022-07-26T04:57:42.786Z,3.83
2022-07-26T05:00:27.752Z,3.65
2022-07-26T05:02:58.137Z,3.80
2022-07-26T05:05:27.215Z,3.58
2022-07-26T05:07:56.744Z,3.38
2022-07-26T05:10:29.874Z,4.00
2022-07-26T05:12:58.047Z,3.78
2022-07-26T05:15:35.126Z,3.50
2022-07-26T05:18:06.754Z,3.45
2022-07-26T05:20:35.575Z,3.45
2022-07-26T05:23:03.694Z,3.13
2022-07-26T05:25:31.903Z,2.95
2022-07-26T05:28:00.007Z,3.42
2022-07-26T05:30:28.192Z,3.30
2022-07-26T05:32:56.332Z,3.38
2022-07-26T05:35:25.885Z,3.40
2022-07-26T05:37:54.027Z,3.35
2022-07-26T05:40:22.542Z,3.53
2022-07-26T05:42:50.697Z,3.00
2022-07-26T05:45:18.779Z,3.30
2022-07-26T05:47:46.944Z,4.82
2022-07-26T05:50:15.494Z,4.07
2022-07-26T05:52:45.037Z,4.20
2022-07-26T05:55:13.112Z,3.83
2022-07-26T05:57:41.626Z,3.30
2022-07-26T06:00:10.987Z,3.25
2022-07-26T06:02:42.183Z,3.28
2022-07-26T06:05:10.860Z,3.00
2022-07-26T06:07:39.602Z,3.40
2022-07-26T06:10:10.281Z,3.40
2022-07-26T06:12:38.435Z,2.97
2022-07-26T06:15:14.864Z,3.00
2022-07-26T06:17:44.088Z,2.80
2022-07-26T06:20:12.870Z,4.47
2022-07-26T06:22:41.043Z,6.68
2022-07-26T06:25:25.671Z,5.30
2022-07-26T06:27:53.810Z,4.60
2022-07-26T06:30:21.939Z,5.07
2022-07-26T06:32:50.104Z,4.38
2022-07-26T06:35:18.312Z,5.05
2022-07-26T06:37:47.408Z,5.05
2022-07-26T06:40:15.561Z,4.53
2022-07-26T06:42:45.025Z,4.70
2022-07-26T06:45:13.463Z,4.90
2022-07-26T06:47:41.635Z,4.70
2022-07-26T06:50:10.535Z,5.10
2022-07-26T06:52:38.658Z,4.70
2022-07-26T06:55:08.977Z,4.28
2022-07-26T06:57:45.026Z,4.20
2022-07-26T07:00:20.557Z,4.25
2022-07-26T07:02:48.938Z,4.05
2022-07-26T07:05:17.185Z,4.15
2022-07-26T07:07:45.746Z,4.30
2022-07-26T07:10:14.516Z,4.30
2022-07-26T07:12:44.815Z,3.88
2022-07-26T07:15:13.003Z,4.00
2022-07-26T07:17:42.522Z,4.05
2022-07-26T07:20:11.780Z,4.10
2022-07-26T07:22:39.898Z,3.90
2022-07-26T07:25:08.496Z,4.05
2022-07-26T07:27:36.726Z,3.80
2022-07-26T07:30:05.409Z,3.55
2022-07-26T07:32:33.554Z,4.10
2022-07-26T07:35:04.830Z,4.10
2022-07-26T07:37:53.098Z,3.63
2022-07-26T07:40:22.373Z,3.85
2022-07-26T07:42:50.814Z,3.40
2022-07-26T07:45:19.101Z,4.10
2022-07-26T07:47:47.253Z,3.67
2022-07-26T07:50:16.707Z,3.97
2022-07-26T07:52:46.339Z,3.67
2022-07-26T07:55:40.633Z,3.90
2022-07-26T07:58:04.217Z,3.67
2022-07-26T08:00:32.399Z,3.63
2022-07-26T08:03:00.579Z,3.67
2022-07-26T08:05:30.102Z,3.70
2022-07-26T08:07:58.213Z,3.40
2022-07-26T08:10:26.395Z,3.60
2022-07-26T08:12:54.503Z,3.88
2022-07-26T08:15:23.508Z,3.60
2022-07-26T08:17:54.030Z,3.60
2022-07-26T08:20:24.843Z,3.15
2022-07-26T08:22:54.558Z,3.42
2022-07-26T08:25:22.825Z,5.65
2022-07-26T08:28:03.200Z,13.38
2022-07-26T08:30:32.134Z,9.43
2022-07-26T08:33:00.340Z,7.45
2022-07-26T08:35:29.584Z,5.97
2022-07-26T08:37:59.295Z,4.38
2022-07-26T08:40:27.398Z,4.53
2022-07-26T08:42:56.366Z,3.53
2022-07-26T08:45:24.618Z,3.90
2022-07-26T08:48:15.377Z,3.67
2022-07-26T08:50:41.515Z,2.90
2022-07-26T08:53:13.085Z,3.22
2022-07-26T08:58:29.462Z,18.38
2022-07-26T09:01:08.102Z,13.65
2022-07-26T09:03:38.003Z,11.40
2022-07-26T09:06:16.127Z,7.95
2022-07-26T09:08:45.851Z,6.15
2022-07-26T09:11:33.115Z,5.07
2022-07-26T09:14:02.103Z,4.65
2022-07-26T09:16:30.360Z,4.25
2022-07-26T09:19:17.895Z,3.97
2022-07-26T09:21:46.553Z,3.75
2022-07-26T09:24:20.527Z,3.80
2022-07-26T09:26:56.509Z,3.17
2022-07-26T09:29:24.677Z,3.28
2022-07-26T09:31:52.895Z,3.10
2022-07-26T09:34:25.662Z,2.90
2022-07-26T09:36:55.722Z,2.90
2022-07-26T09:39:33.703Z,2.78
2022-07-26T09:42:27.238Z,2.80
2022-07-26T09:44:56.849Z,2.50
2022-07-26T09:47:25.268Z,3.03
2022-07-26T09:50:12.113Z,4.40
2022-07-26T09:52:40.413Z,11.63
2022-07-26T09:55:13.470Z,20.45
2022-07-26T09:57:41.607Z,19.75
2022-07-26T10:00:11.003Z,9.73
2022-07-26T10:02:39.195Z,8.07
2022-07-26T10:05:07.878Z,6.68
2022-07-26T10:07:36.099Z,5.82
2022-07-26T10:10:06.488Z,5.80
2022-07-26T10:12:35.998Z,5.20
2022-07-26T10:15:04.271Z,4.50
2022-07-26T10:17:42.803Z,4.57
2022-07-26T10:20:17.228Z,4.53
2022-07-26T10:22:49.005Z,4.20
2022-07-26T10:25:47.398Z,3.83
2022-07-26T10:28:30.574Z,3.92
2022-07-26T10:31:33.149Z,3.53
2022-07-26T10:34:01.887Z,3.50
2022-07-26T10:36:34.932Z,4.00
2022-07-26T10:39:08.036Z,3.38
2022-07-26T10:41:38.391Z,3.70
2022-07-26T10:44:27.446Z,3.88
2022-07-26T10:47:11.343Z,3.85
2022-07-26T10:49:40.130Z,3.88
2022-07-26T10:52:13.310Z,4.03
2022-07-26T10:55:09.270Z,4.03
2022-07-26T10:57:38.296Z,3.83
2022-07-26T11:00:13.592Z,4.07
2022-07-26T11:02:43.890Z,4.22
2022-07-26T11:05:16.463Z,3.88
2022-07-26T11:07:58.609Z,3.88
2022-07-26T11:10:28.658Z,4.22
2022-07-26T11:13:18.463Z,3.88
2022-07-26T11:15:49.052Z,3.85
2022-07-26T11:18:22.594Z,4.20
2022-07-26T11:20:52.955Z,4.00
2022-07-26T11:23:23.208Z,4.32
2022-07-26T11:26:18.803Z,4.35
2022-07-26T11:28:54.485Z,4.35
2022-07-26T11:31:49.263Z,3.90
2022-07-26T11:34:18.371Z,4.28
2022-07-26T11:36:46.754Z,3.90
2022-07-26T11:39:16.010Z,4.25
2022-07-26T11:41:44.345Z,3.90
2022-07-26T11:44:16.704Z,4.07
2022-07-26T11:46:48.278Z,4.05
2022-07-26T11:49:17.703Z,4.15
2022-07-26T11:51:55.703Z,4.28
2022-07-26T11:54:24.254Z,3.80
2022-07-26T11:56:55.960Z,4.03
2022-07-26T11:59:24.857Z,3.90
2022-07-26T12:01:54.627Z,4.00
2022-07-26T12:04:23.788Z,3.80
2022-07-26T12:06:52.068Z,3.53
2022-07-26T12:09:29.913Z,3.60
2022-07-26T12:11:58.128Z,3.65
2022-07-26T12:14:27.130Z,3.60
2022-07-26T12:16:56.683Z,3.65
2022-07-26T12:19:29.848Z,3.70
2022-07-26T12:21:59.646Z,3.47
2022-07-26T12:24:38.866Z,3.42
2022-07-26T12:27:10.761Z,3.63
2022-07-26T12:29:39.108Z,3.60
2022-07-26T12:32:13.999Z,3.67
2022-07-26T12:34:44.454Z,3.40
2022-07-26T12:37:17.623Z,3.80
2022-07-26T12:40:00.896Z,3.20
2022-07-26T12:42:33.398Z,3.50
2022-07-26T12:45:03.219Z,3.58
2022-07-26T12:47:33.271Z,3.58
2022-07-26T12:50:03.636Z,3.75
2022-07-26T12:52:33.825Z,3.50
2022-07-26T12:55:02.372Z,3.42
2022-07-26T12:57:30.915Z,3.22
2022-07-26T12:59:59.533Z,3.63
2022-07-26T13:02:28.205Z,4.70
2022-07-26T13:05:00.455Z,4.60
2022-07-26T13:07:28.992Z,3.55
2022-07-26T13:10:29.933Z,6.15
2022-07-26T13:12:46.349Z,6.07
2022-07-26T13:15:14.975Z,6.03
2022-07-26T13:17:43.622Z,5.50
2022-07-26T13:20:13.717Z,5.40
2022-07-26T13:22:44.970Z,5.43
2022-07-26T13:25:13.291Z,5.75
2022-07-26T13:27:44.972Z,4.95
2022-07-26T13:30:14.393Z,4.40
2022-07-26T13:32:43.309Z,5.00
2022-07-26T13:35:13.208Z,4.85
2022-07-26T13:37:41.757Z,4.80
2022-07-26T13:40:11.634Z,4.82
2022-07-26T13:42:40.366Z,5.15
2022-07-26T13:45:10.222Z,5.18
2022-07-26T13:47:38.795Z,4.80
2022-07-26T13:50:08.463Z,4.60
2022-07-26T13:52:38.623Z,4.80
2022-07-26T13:55:07.778Z,4.60
2022-07-26T13:57:47.191Z,4.38
2022-07-26T14:00:24.836Z,8.45
2022-07-26T14:02:53.381Z,5.82
2022-07-26T14:05:22.126Z,6.40
2022-07-26T14:07:52.259Z,7.10
2022-07-26T14:10:20.998Z,7.25
2022-07-26T14:12:49.491Z,6.50
2022-07-26T14:15:22.599Z,6.72
2022-07-26T14:17:52.452Z,5.57
2022-07-26T14:20:21.412Z,5.85
2022-07-26T14:22:53.802Z,5.68
2022-07-26T14:25:22.686Z,6.25
2022-07-26T14:27:51.768Z,6.03
2022-07-26T14:30:20.713Z,7.20
2022-07-26T14:32:49.492Z,7.63
2022-07-26T14:35:18.792Z,8.15
2022-07-26T14:37:47.502Z,7.38
2022-07-26T14:40:18.239Z,7.00
2022-07-26T14:42:46.786Z,7.03
2022-07-26T14:45:15.550Z,7.32
2022-07-26T14:47:44.292Z,7.50
2022-07-26T14:50:13.738Z,7.25
2022-07-26T14:52:43.868Z,7.15
2022-07-26T14:55:12.395Z,7.75
2022-07-26T14:57:42.369Z,7.05
2022-07-26T15:00:12.666Z,6.60
2022-07-26T15:02:41.771Z,7.13
2022-07-26T15:05:11.253Z,6.45
2022-07-26T15:07:40.006Z,5.93
2022-07-26T15:10:09.484Z,6.53
2022-07-26T15:12:38.206Z,6.00
2022-07-26T15:15:09.019Z,6.28
2022-07-26T15:17:37.646Z,6.80
2022-07-26T15:20:07.486Z,7.53
2022-07-26T15:22:36.347Z,7.45
2022-07-26T15:25:05.007Z,8.18
2022-07-26T15:27:33.312Z,8.32
2022-07-26T15:30:05.098Z,7.50
2022-07-26T15:32:36.684Z,7.43
2022-07-26T15:35:05.691Z,7.18
2022-07-26T15:37:34.219Z,6.20
2022-07-26T15:40:02.902Z,6.50
2022-07-26T15:42:31.910Z,6.28
2022-07-26T15:45:01.189Z,8.20
2022-07-26T15:47:59.311Z,8.68
2022-07-26T15:50:28.366Z,8.02
2022-07-26T15:52:56.894Z,7.78
2022-07-26T15:55:25.913Z,7.20
2022-07-26T15:57:55.232Z,6.78
2022-07-26T16:00:23.684Z,7.05
2022-07-26T16:02:53.546Z,6.78
2022-07-26T16:05:22.105Z,6.75
2022-07-26T16:07:50.744Z,5.95
2022-07-26T16:10:19.464Z,6.70
2022-07-26T16:12:48.220Z,6.80
2022-07-26T16:15:16.764Z,6.20
2022-07-26T16:17:45.374Z,5.85
2022-07-26T16:20:15.926Z,5.32
2022-07-26T16:22:44.761Z,5.10
2022-07-26T16:25:14.329Z,5.35
2022-07-26T16:27:43.198Z,4.80
2022-07-26T16:30:12.477Z,4.97
2022-07-26T16:32:40.536Z,5.38
2022-07-26T16:35:09.367Z,6.50
2022-07-26T16:37:39.005Z,5.80
2022-07-26T16:40:08.358Z,6.88
2022-07-26T16:42:36.646Z,6.88
2022-07-26T16:45:05.601Z,6.20
2022-07-26T16:47:34.143Z,6.07
2022-07-26T16:50:02.594Z,5.90
2022-07-26T16:52:30.891Z,6.40
2022-07-26T16:55:01.205Z,5.75
2022-07-26T16:57:29.524Z,4.97
2022-07-26T16:59:57.915Z,4.93
2022-07-26T17:02:26.250Z,5.28
2022-07-26T17:04:55.921Z,6.07
2022-07-26T17:07:25.774Z,5.10
2022-07-26T17:09:55.028Z,4.80
2022-07-26T17:12:24.903Z,7.35
2022-07-26T17:14:53.260Z,6.55
2022-07-26T17:17:21.638Z,6.82
2022-07-26T17:19:50.014Z,9.52
2022-07-26T17:22:18.484Z,9.02
2022-07-26T17:24:47.061Z,5.95
2022-07-26T17:27:15.517Z,6.30
2022-07-26T17:29:45.335Z,6.28
2022-07-26T17:32:13.750Z,6.70
2022-07-26T17:34:42.101Z,7.03
2022-07-26T17:37:13.139Z,7.40
2022-07-26T17:39:50.889Z,8.38
2022-07-26T17:42:21.145Z,7.93
2022-07-26T17:44:50.680Z,6.47
2022-07-26T17:47:29.549Z,6.90
2022-07-26T17:52:48.745Z,5.03
2022-07-26T17:55:18.510Z,5.60
2022-07-26T17:57:47.791Z,5.10
2022-07-26T18:00:18.127Z,5.40
2022-07-26T18:02:46.624Z,5.30
2022-07-26T18:05:14.907Z,5.20
2022-07-26T18:07:43.048Z,4.78
2022-07-26T18:10:11.673Z,4.80
2022-07-26T18:12:39.815Z,4.13
2022-07-26T18:15:08.942Z,4.00
2022-07-26T18:17:41.459Z,4.40
2022-07-26T18:20:10.882Z,4.38
2022-07-26T18:22:38.984Z,4.18
2022-07-26T18:25:07.639Z,4.47
2022-07-26T18:27:35.728Z,4.40
2022-07-26T18:30:04.101Z,4.22
2022-07-26T18:32:32.326Z,4.60
2022-07-26T18:35:01.892Z,4.20
2022-07-26T18:37:30.076Z,4.30
2022-07-26T18:39:59.702Z,4.00
2022-07-26T18:42:27.881Z,3.97
2022-07-26T18:44:55.955Z,5.32
2022-07-26T18:47:24.072Z,4.75
2022-07-26T18:49:52.241Z,5.97
2022-07-26T18:52:28.267Z,6.03
2022-07-26T18:54:58.578Z,5.57
2022-07-26T19:00:29.718Z,4.40
2022-07-26T19:02:57.951Z,4.43
2022-07-26T19:05:26.131Z,4.32
2022-07-26T19:08:04.131Z,4.75
2022-07-26T19:10:32.239Z,5.95
2022-07-26T19:13:00.346Z,6.80
2022-07-26T19:15:29.778Z,6.55
2022-07-26T19:17:57.998Z,6.07
2022-07-26T19:20:26.104Z,5.45
2022-07-26T19:22:54.184Z,5.20
2022-07-26T19:25:23.703Z,4.80
2022-07-26T19:27:51.948Z,5.35
2022-07-26T19:30:20.099Z,4.40
2022-07-26T19:32:48.173Z,4.43
2022-07-26T19:35:16.252Z,4.50
2022-07-26T19:37:45.760Z,6.80
2022-07-26T19:40:14.474Z,5.43
2022-07-26T19:42:43.987Z,6.40
2022-07-26T19:45:12.647Z,5.57
2022-07-26T19:47:41.145Z,5.72
2022-07-26T19:50:10.167Z,7.05
2022-07-26T19:52:38.272Z,8.00
2022-07-26T19:55:07.379Z,9.02
2022-07-26T19:57:35.450Z,8.63
2022-07-26T20:00:05.887Z,9.07
2022-07-26T20:02:40.989Z,8.73
2022-07-26T20:05:10.253Z,8.40
2022-07-26T20:07:38.314Z,7.85
2022-07-26T20:10:07.738Z,8.70
2022-07-26T20:12:37.680Z,8.20
2022-07-26T20:15:08.470Z,7.55
2022-07-26T20:18:10.846Z,8.32
2022-07-26T20:20:39.504Z,8.30
2022-07-26T20:23:12.019Z,8.00
2022-07-26T20:25:51.006Z,7.60
2022-07-26T20:28:19.142Z,7.90
2022-07-26T20:30:51.620Z,7.97
2022-07-26T20:33:20.170Z,7.35
2022-07-26T20:35:52.920Z,7.88
2022-07-26T20:38:23.043Z,7.85
2022-07-26T20:40:51.215Z,8.23
2022-07-26T20:43:21.717Z,7.82
2022-07-26T20:45:51.340Z,7.85
2022-07-26T20:48:19.468Z,7.55
2022-07-26T20:50:47.569Z,7.53
2022-07-26T20:53:15.659Z,7.55
2022-07-26T20:55:43.871Z,7.28
2022-07-26T20:58:14.290Z,7.18
2022-07-26T21:00:43.459Z,7.68
2022-07-26T21:03:13.795Z,7.22
2022-07-26T21:05:41.887Z,7.07
2022-07-26T21:08:10.518Z,7.30
2022-07-26T21:10:39.055Z,7.43
2022-07-26T21:13:07.181Z,7.20
2022-07-26T21:15:35.704Z,7.60
2022-07-26T21:18:03.768Z,6.88
2022-07-26T21:20:33.748Z,7.28
2022-07-26T21:23:15.836Z,7.40
2022-07-26T21:25:44.782Z,6.97
2022-07-26T21:28:12.882Z,7.28
2022-07-26T21:30:41.255Z,7.00
2022-07-26T21:33:09.338Z,7.10
2022-07-26T21:35:41.042Z,6.78
2022-07-26T21:38:09.339Z,6.72
2022-07-26T21:40:37.550Z,7.10
2022-07-26T21:43:05.687Z,7.07
2022-07-26T21:45:33.806Z,6.45
2022-07-26T21:48:02.040Z,7.32
2022-07-26T21:50:30.526Z,6.30
2022-07-26T21:53:01.201Z,6.45
2022-07-26T21:55:30.203Z,6.53
2022-07-26T21:57:58.328Z,6.60
2022-07-26T22:00:26.528Z,6.38
2022-07-26T22:02:56.263Z,6.43
2022-07-26T22:05:38.029Z,6.78
2022-07-26T22:08:09.033Z,6.13
2022-07-26T22:10:44.205Z,6.10
2022-07-26T22:13:13.078Z,6.15
2022-07-26T22:15:41.117Z,6.18
2022-07-26T22:18:10.002Z,6.38
2022-07-26T22:20:38.426Z,6.13
2022-07-26T22:23:09.278Z,6.18
2022-07-26T22:25:38.135Z,5.72
2022-07-26T22:28:06.726Z,5.85
2022-07-26T22:30:34.858Z,5.47
2022-07-26T22:33:03.953Z,6.25
2022-07-26T22:35:36.384Z,5.72
2022-07-26T22:38:05.518Z,5.72
2022-07-26T22:40:35.259Z,5.80
2022-07-26T22:43:03.446Z,5.30
2022-07-26T22:45:31.614Z,5.53
2022-07-26T22:47:59.823Z,5.60
2022-07-26T22:50:27.951Z,5.70
2022-07-26T22:52:56.190Z,5.25
2022-07-26T22:55:24.268Z,5.30
2022-07-26T22:57:53.759Z,5.25
2022-07-26T23:00:22.015Z,5.20
2022-07-26T23:02:50.204Z,4.88
2022-07-26T23:05:18.266Z,4.82
2022-07-26T23:07:48.153Z,4.82
2022-07-26T23:10:16.512Z,4.75
2022-07-26T23:12:44.843Z,5.43
2022-07-26T23:15:14.432Z,5.40
2022-07-26T23:17:42.542Z,5.10
2022-07-26T23:20:11.469Z,5.25
2022-07-26T23:22:41.857Z,5.50
2022-07-26T23:25:10.754Z,5.60
2022-07-26T23:27:38.854Z,5.00
2022-07-26T23:30:07.754Z,4.88
2022-07-26T23:32:37.279Z,5.00
2022-07-26T23:35:06.234Z,5.00
2022-07-26T23:37:34.914Z,5.18
2022-07-26T23:40:03.036Z,5.25
2022-07-26T23:42:31.145Z,4.35
2022-07-26T23:44:59.260Z,4.80
2022-07-26T23:47:27.381Z,4.43
2022-07-26T23:49:56.891Z,4.25
2022-07-26T23:52:25.730Z,4.70
2022-07-26T23:54:53.922Z,5.10
2022-07-26T23:57:22.991Z,4.43
2022-07-26T23:59:51.117Z,4.78
